createdAt,value
2018-07-08T00:01:25.239Z,18.59
2018-07-08T00:03:53.904Z,18.56
2018-07-08T00:06:22.572Z,18.56
2018-07-08T00:08:51.329Z,18.54
2018-07-08T00:11:19.998Z,18.51
2018-07-08T00:13:48.748Z,18.50
2018-07-08T00:16:17.455Z,18.52
2018-07-08T00:18:46.504Z,18.46
2018-07-08T00:21:15.201Z,18.48
2018-07-08T00:23:43.854Z,18.50
2018-07-08T00:26:12.632Z,18.47
2018-07-08T00:28:41.339Z,18.46
2018-07-08T00:31:10.073Z,18.50
2018-07-08T00:33:38.727Z,18.50
2018-07-08T00:36:07.430Z,18.48
2018-07-08T00:38:36.139Z,18.48
2018-07-08T00:41:04.820Z,18.49
2018-07-08T00:43:33.451Z,18.49
2018-07-08T00:46:02.134Z,18.48
2018-07-08T00:48:30.748Z,18.43
2018-07-08T00:50:59.375Z,18.43
2018-07-08T00:53:28.031Z,18.43
2018-07-08T00:55:56.708Z,18.43
2018-07-08T00:58:25.435Z,18.43
2018-07-08T01:00:54.160Z,18.43
2018-07-08T01:03:23.180Z,18.39
2018-07-08T01:05:51.865Z,18.38
2018-07-08T01:08:20.507Z,18.37
2018-07-08T01:10:49.229Z,18.40
2018-07-08T01:13:17.946Z,18.43
2018-07-08T01:15:46.612Z,18.40
2018-07-08T01:18:15.324Z,18.39
2018-07-08T01:20:44.049Z,18.35
2018-07-08T01:23:12.789Z,18.32
2018-07-08T01:25:52.535Z,18.28
2018-07-08T01:28:21.240Z,18.24
2018-07-08T01:30:49.976Z,18.27
2018-07-08T01:33:18.703Z,18.30
2018-07-08T01:35:47.381Z,18.25
2018-07-08T01:38:16.024Z,18.30
2018-07-08T01:40:44.678Z,18.32
2018-07-08T01:43:13.415Z,18.33
2018-07-08T01:45:42.053Z,18.35
2018-07-08T01:48:10.779Z,18.38
2018-07-08T01:50:39.490Z,18.38
2018-07-08T01:53:08.193Z,18.39
2018-07-08T01:55:36.900Z,18.44
2018-07-08T01:58:05.643Z,18.46
2018-07-08T02:00:34.453Z,18.44
2018-07-08T02:03:03.153Z,18.43
2018-07-08T02:05:31.878Z,18.48
2018-07-08T02:08:00.885Z,18.49
2018-07-08T02:10:29.510Z,18.53
2018-07-08T02:12:58.583Z,18.54
2018-07-08T02:15:27.287Z,18.54
2018-07-08T02:17:56.007Z,18.55
2018-07-08T02:20:24.708Z,18.57
2018-07-08T02:22:53.392Z,18.51
2018-07-08T02:25:22.107Z,18.52
2018-07-08T02:27:51.300Z,18.47
2018-07-08T02:30:19.970Z,18.49
2018-07-08T02:32:48.688Z,18.50
2018-07-08T02:35:17.476Z,18.46
2018-07-08T02:37:46.218Z,18.43
2018-07-08T02:40:14.851Z,18.45
2018-07-08T02:42:43.612Z,18.46
2018-07-08T02:45:12.269Z,18.46
2018-07-08T02:47:41.019Z,18.47
2018-07-08T02:50:09.675Z,18.46
2018-07-08T02:52:38.449Z,18.44
2018-07-08T02:55:07.180Z,18.47
2018-07-08T02:57:35.816Z,18.48
2018-07-08T03:00:05.855Z,18.48
2018-07-08T03:02:34.549Z,18.48
2018-07-08T03:05:03.275Z,18.48
2018-07-08T03:07:31.939Z,18.48
2018-07-08T03:10:00.672Z,18.54
2018-07-08T03:12:29.422Z,18.51
2018-07-08T03:14:58.102Z,18.54
2018-07-08T03:17:26.743Z,18.54
2018-07-08T03:19:55.432Z,18.54
2018-07-08T03:22:24.061Z,18.53
2018-07-08T03:24:52.669Z,18.59
2018-07-08T03:27:21.322Z,18.59
2018-07-08T03:29:49.953Z,18.62
2018-07-08T03:32:18.602Z,18.66
2018-07-08T03:34:47.256Z,18.63
2018-07-08T03:37:15.910Z,18.60
2018-07-08T03:39:44.560Z,18.65
2018-07-08T03:42:13.189Z,18.60
2018-07-08T03:44:41.846Z,18.58
2018-07-08T03:47:10.479Z,18.61
2018-07-08T03:49:39.096Z,18.65
2018-07-08T03:52:07.766Z,18.69
2018-07-08T03:54:36.447Z,18.75
2018-07-08T03:57:05.123Z,18.82
2018-07-08T03:59:33.740Z,18.86
2018-07-08T04:02:02.398Z,18.89
2018-07-08T04:04:31.142Z,18.91
2018-07-08T04:06:59.828Z,18.98
2018-07-08T04:09:28.495Z,18.81
2018-07-08T04:11:57.159Z,18.99
2018-07-08T04:14:25.770Z,19.03
2018-07-08T04:16:54.495Z,19.01
2018-07-08T04:19:23.150Z,19.04
2018-07-08T04:21:51.803Z,19.08
2018-07-08T04:24:20.436Z,19.15
2018-07-08T04:26:49.082Z,19.14
2018-07-08T04:29:17.694Z,19.25
2018-07-08T04:31:46.441Z,19.24
2018-07-08T04:34:15.102Z,19.28
2018-07-08T04:36:43.771Z,19.30
2018-07-08T04:39:12.419Z,19.33
2018-07-08T04:41:41.088Z,19.36
2018-07-08T04:44:09.853Z,19.40
2018-07-08T04:46:38.527Z,19.44
2018-07-08T04:49:07.190Z,19.49
2018-07-08T04:51:35.867Z,19.52
2018-07-08T04:54:04.527Z,19.56
2018-07-08T04:56:33.176Z,19.62
2018-07-08T04:59:01.860Z,19.66
2018-07-08T05:01:30.530Z,19.73
2018-07-08T05:03:59.165Z,19.69
2018-07-08T05:06:27.865Z,19.73
2018-07-08T05:08:56.504Z,19.73
2018-07-08T05:11:25.220Z,19.64
2018-07-08T05:13:53.915Z,19.64
2018-07-08T05:16:22.547Z,19.64
2018-07-08T05:18:51.208Z,19.70
2018-07-08T05:21:19.850Z,19.64
2018-07-08T05:23:48.500Z,19.62
2018-07-08T05:26:17.132Z,19.53
2018-07-08T05:28:45.791Z,19.44
2018-07-08T05:31:14.466Z,19.42
2018-07-08T05:33:43.112Z,19.42
2018-07-08T05:36:11.784Z,19.50
2018-07-08T05:38:40.468Z,19.53
2018-07-08T05:41:09.106Z,19.52
2018-07-08T05:43:37.820Z,19.54
2018-07-08T05:46:06.510Z,19.58
2018-07-08T05:48:35.177Z,19.65
2018-07-08T05:51:03.810Z,19.72
2018-07-08T05:53:32.447Z,19.83
2018-07-08T05:56:01.143Z,19.85
2018-07-08T05:58:29.803Z,19.93
2018-07-08T06:00:58.466Z,20.00
2018-07-08T06:03:27.131Z,20.14
2018-07-08T06:05:55.782Z,20.37
2018-07-08T06:08:24.498Z,20.29
2018-07-08T06:10:53.220Z,20.64
2018-07-08T06:13:21.911Z,20.81
2018-07-08T06:15:50.586Z,20.78
2018-07-08T06:18:19.239Z,20.78
2018-07-08T06:20:47.903Z,20.61
2018-07-08T06:23:16.611Z,20.54
2018-07-08T06:25:45.299Z,20.55
2018-07-08T06:28:14.047Z,20.46
2018-07-08T06:30:42.749Z,20.36
2018-07-08T06:33:11.399Z,20.27
2018-07-08T06:35:40.147Z,20.28
2018-07-08T06:38:08.796Z,20.32
2018-07-08T06:40:37.462Z,20.36
2018-07-08T06:43:06.134Z,20.32
2018-07-08T06:45:34.848Z,20.44
2018-07-08T06:48:03.511Z,20.38
2018-07-08T06:50:32.135Z,20.40
2018-07-08T06:53:00.828Z,20.42
2018-07-08T06:55:29.543Z,20.37
2018-07-08T06:57:58.201Z,20.48
2018-07-08T07:00:26.932Z,20.55
2018-07-08T07:02:55.553Z,20.61
2018-07-08T07:05:24.190Z,20.53
2018-07-08T07:07:52.840Z,20.55
2018-07-08T07:10:21.476Z,20.53
2018-07-08T07:12:50.123Z,20.54
2018-07-08T07:15:18.811Z,20.59
2018-07-08T07:17:47.510Z,20.54
2018-07-08T07:20:16.192Z,20.60
2018-07-08T07:22:44.873Z,20.79
2018-07-08T07:25:13.539Z,20.79
2018-07-08T07:27:42.306Z,20.85
2018-07-08T07:30:11.140Z,21.01
2018-07-08T07:32:39.807Z,21.08
2018-07-08T07:35:08.469Z,21.19
2018-07-08T07:37:37.212Z,21.42
2018-07-08T07:40:06.096Z,21.59
2018-07-08T07:42:35.125Z,21.85
2018-07-08T07:45:03.927Z,22.21
2018-07-08T07:47:32.635Z,22.59
2018-07-08T07:50:01.312Z,22.47
2018-07-08T07:52:29.953Z,22.42
2018-07-08T07:54:58.637Z,22.35
2018-07-08T07:57:27.311Z,22.12
2018-07-08T07:59:55.943Z,22.20
2018-07-08T08:02:24.675Z,22.09
2018-07-08T08:04:53.370Z,22.15
2018-07-08T08:07:22.063Z,22.10
2018-07-08T08:09:50.684Z,21.99
2018-07-08T08:12:19.328Z,21.90
2018-07-08T08:14:48.013Z,21.68
2018-07-08T08:17:16.717Z,21.78
2018-07-08T08:19:45.412Z,21.68
2018-07-08T08:22:14.104Z,21.56
2018-07-08T08:24:42.758Z,21.62
2018-07-08T08:27:11.483Z,21.66
2018-07-08T08:29:40.142Z,21.79
2018-07-08T08:32:08.871Z,21.96
2018-07-08T08:34:56.438Z,22.05
2018-07-08T08:37:26.480Z,22.29
2018-07-08T08:39:55.416Z,22.44
2018-07-08T08:42:24.220Z,22.60
2018-07-08T08:44:53.881Z,22.88
2018-07-08T08:47:22.845Z,23.35
2018-07-08T08:49:52.340Z,23.64
2018-07-08T08:52:21.160Z,23.82
2018-07-08T08:54:50.045Z,24.39
2018-07-08T08:57:18.761Z,24.31
2018-07-08T08:59:47.527Z,24.61
2018-07-08T09:02:16.340Z,25.11
2018-07-08T09:04:45.296Z,25.27
2018-07-08T09:07:15.205Z,25.17
2018-07-08T09:09:43.935Z,24.60
2018-07-08T09:12:12.974Z,24.26
2018-07-08T09:14:41.735Z,24.03
2018-07-08T09:17:10.676Z,24.04
2018-07-08T09:19:39.423Z,23.18
2018-07-08T09:22:08.718Z,22.88
2018-07-08T09:24:37.447Z,22.45
2018-07-08T09:27:06.210Z,22.05
2018-07-08T09:29:34.861Z,21.59
2018-07-08T09:32:03.531Z,21.16
2018-07-08T09:34:32.215Z,21.14
2018-07-08T09:37:01.896Z,21.13
2018-07-08T09:39:30.551Z,20.69
2018-07-08T09:41:59.295Z,20.22
2018-07-08T09:44:27.934Z,19.59
2018-07-08T09:46:56.606Z,18.85
2018-07-08T09:49:25.298Z,18.33
2018-07-08T09:51:54.119Z,18.21
2018-07-08T09:54:22.773Z,18.13
2018-07-08T09:56:52.451Z,18.05
2018-07-08T09:59:21.189Z,18.05
2018-07-08T10:01:50.694Z,18.06
2018-07-08T10:04:20.709Z,18.10
2018-07-08T10:06:50.217Z,18.11
2018-07-08T10:09:20.439Z,18.15
2018-07-08T10:11:49.143Z,18.15
2018-07-08T10:14:19.111Z,18.11
2018-07-08T10:16:47.803Z,18.10
2018-07-08T10:19:17.667Z,18.07
2018-07-08T10:21:46.423Z,18.07
2018-07-08T10:24:15.310Z,18.07
2018-07-08T10:26:43.974Z,18.08
2018-07-08T10:29:15.376Z,18.17
2018-07-08T10:31:51.112Z,18.17
2018-07-08T10:34:19.942Z,18.14
2018-07-08T10:36:48.626Z,18.18
2018-07-08T10:39:17.691Z,18.40
2018-07-08T10:41:46.454Z,18.52
2018-07-08T10:44:15.384Z,18.48
2018-07-08T10:46:44.188Z,18.51
2018-07-08T10:49:12.919Z,18.41
2018-07-08T10:51:41.618Z,18.55
2018-07-08T10:54:10.281Z,18.66
2018-07-08T10:56:39.865Z,18.78
2018-07-08T10:59:08.628Z,18.96
2018-07-08T11:01:37.311Z,19.22
2018-07-08T11:04:06.023Z,19.23
2018-07-08T11:06:34.714Z,19.39
2018-07-08T11:09:03.647Z,19.67
2018-07-08T11:11:32.648Z,19.70
2018-07-08T11:14:01.330Z,19.81
2018-07-08T11:16:31.528Z,19.71
2018-07-08T11:19:00.164Z,19.26
2018-07-08T11:21:28.880Z,19.18
2018-07-08T11:23:57.817Z,19.34
2018-07-08T11:26:26.504Z,19.51
2018-07-08T11:28:55.195Z,19.43
2018-07-08T11:31:23.868Z,19.36
2018-07-08T11:33:52.560Z,19.43
2018-07-08T11:36:21.242Z,19.58
2018-07-08T11:38:50.297Z,19.73
2018-07-08T11:41:19.096Z,19.62
2018-07-08T11:43:47.885Z,19.46
2018-07-08T11:46:16.530Z,19.48
2018-07-08T11:48:45.194Z,19.44
2018-07-08T11:51:13.943Z,19.43
2018-07-08T11:53:42.622Z,19.45
2018-07-08T11:56:11.376Z,19.49
2018-07-08T11:58:40.141Z,19.49
2018-07-08T12:01:08.903Z,19.64
2018-07-08T12:03:37.583Z,19.83
2018-07-08T12:06:06.381Z,19.71
2018-07-08T12:08:35.122Z,19.69
2018-07-08T12:11:03.885Z,19.70
2018-07-08T12:13:32.592Z,19.66
2018-07-08T12:16:01.374Z,19.74
2018-07-08T12:18:30.396Z,19.99
2018-07-08T12:20:59.132Z,20.19
2018-07-08T12:23:28.121Z,20.29
2018-07-08T12:25:56.819Z,20.31
2018-07-08T12:28:25.626Z,20.39
2018-07-08T12:30:54.665Z,20.73
2018-07-08T12:33:23.772Z,20.92
2018-07-08T12:35:52.568Z,20.80
2018-07-08T12:38:21.275Z,20.62
2018-07-08T12:40:49.908Z,20.56
2018-07-08T12:43:18.605Z,20.91
2018-07-08T12:45:47.348Z,21.19
2018-07-08T12:48:16.392Z,21.37
2018-07-08T12:50:45.045Z,20.89
2018-07-08T12:53:13.887Z,20.87
2018-07-08T12:55:43.372Z,20.73
2018-07-08T12:58:12.081Z,20.93
2018-07-08T13:00:40.718Z,21.11
2018-07-08T13:03:09.452Z,21.12
2018-07-08T13:05:38.251Z,20.71
2018-07-08T13:08:06.922Z,20.66
2018-07-08T13:10:35.623Z,20.53
2018-07-08T13:13:04.312Z,20.58
2018-07-08T13:15:32.979Z,20.61
2018-07-08T13:18:01.683Z,20.46
2018-07-08T13:20:30.440Z,20.56
2018-07-08T13:22:59.156Z,22.37
2018-07-08T13:25:28.147Z,21.64
2018-07-08T13:27:56.833Z,21.83
2018-07-08T13:30:25.859Z,21.19
2018-07-08T13:32:55.438Z,20.81
2018-07-08T13:35:25.032Z,20.49
2018-07-08T13:37:54.036Z,20.33
2018-07-08T13:40:22.727Z,20.14
2018-07-08T13:42:51.383Z,19.95
2018-07-08T13:45:21.028Z,19.91
2018-07-08T13:47:49.799Z,19.99
2018-07-08T13:50:18.447Z,19.97
2018-07-08T13:52:47.212Z,19.94
2018-07-08T13:55:15.935Z,19.89
2018-07-08T13:57:44.667Z,19.84
2018-07-08T14:00:13.563Z,19.86
2018-07-08T14:02:42.299Z,19.91
2018-07-08T14:05:11.134Z,19.91
2018-07-08T14:07:39.819Z,19.79
2018-07-08T14:10:08.565Z,19.77
2018-07-08T14:12:37.262Z,19.75
2018-07-08T14:15:05.967Z,19.66
2018-07-08T14:17:34.879Z,19.68
2018-07-08T14:20:03.566Z,19.72
2018-07-08T14:22:32.239Z,19.67
2018-07-08T14:25:01.191Z,19.70
2018-07-08T14:27:29.891Z,19.66
2018-07-08T14:29:58.818Z,19.71
2018-07-08T14:32:27.495Z,19.78
2018-07-08T14:34:56.243Z,19.82
2018-07-08T14:37:24.877Z,19.67
2018-07-08T14:39:53.667Z,19.68
2018-07-08T14:42:22.395Z,19.71
2018-07-08T14:44:51.091Z,19.73
2018-07-08T14:47:19.771Z,19.70
2018-07-08T14:49:48.543Z,19.72
2018-07-08T14:52:17.480Z,19.86
2018-07-08T14:54:46.156Z,19.97
2018-07-08T14:57:14.850Z,20.02
2018-07-08T14:59:43.658Z,20.00
2018-07-08T15:02:12.282Z,20.05
2018-07-08T15:04:41.003Z,20.06
2018-07-08T15:07:09.804Z,20.07
2018-07-08T15:09:38.491Z,20.07
2018-07-08T15:12:07.154Z,20.08
2018-07-08T15:14:35.899Z,20.14
2018-07-08T15:17:04.613Z,20.27
2018-07-08T15:19:34.008Z,20.33
2018-07-08T15:22:02.716Z,20.27
2018-07-08T15:24:31.443Z,20.21
2018-07-08T15:27:00.184Z,18.87
2018-07-08T15:29:28.853Z,19.98
2018-07-08T15:31:57.687Z,19.96
2018-07-08T15:34:26.592Z,19.86
2018-07-08T15:36:55.275Z,19.76
2018-07-08T15:39:25.383Z,19.68
2018-07-08T15:41:54.178Z,19.51
2018-07-08T15:44:23.341Z,19.52
2018-07-08T15:46:52.018Z,19.55
2018-07-08T15:49:20.848Z,19.49
2018-07-08T15:51:49.549Z,19.49
2018-07-08T15:54:18.298Z,19.39
2018-07-08T15:56:47.005Z,18.88
2018-07-08T15:59:15.642Z,18.51
2018-07-08T16:01:44.383Z,18.43
2018-07-08T16:04:13.097Z,18.49
2018-07-08T16:06:41.857Z,18.54
2018-07-08T16:09:11.291Z,18.54
2018-07-08T16:11:40.081Z,18.57
2018-07-08T16:14:08.746Z,18.53
2018-07-08T16:16:37.519Z,18.54
2018-07-08T16:19:06.411Z,18.67
2018-07-08T16:21:36.148Z,18.62
2018-07-08T16:24:05.335Z,18.51
2018-07-08T16:26:34.280Z,18.36
2018-07-08T16:29:03.013Z,18.01
2018-07-08T16:31:32.092Z,18.05
2018-07-08T16:34:01.144Z,17.98
2018-07-08T16:36:30.043Z,17.69
2018-07-08T16:38:58.772Z,17.55
2018-07-08T16:41:27.834Z,17.46
2018-07-08T16:43:56.603Z,17.32
2018-07-08T16:46:25.255Z,17.08
2018-07-08T16:48:54.283Z,17.20
2018-07-08T16:51:23.265Z,17.12
2018-07-08T16:53:52.164Z,17.25
2018-07-08T16:56:21.068Z,17.22
2018-07-08T16:58:49.893Z,17.18
2018-07-08T17:01:18.591Z,17.20
2018-07-08T17:03:47.600Z,17.20
2018-07-08T17:06:16.449Z,17.20
2018-07-08T17:08:45.931Z,17.19
2018-07-08T17:11:14.680Z,17.16
2018-07-08T17:13:43.788Z,17.26
2018-07-08T17:16:12.564Z,17.30
2018-07-08T17:18:41.693Z,17.25
2018-07-08T17:21:10.908Z,17.19
2018-07-08T17:23:39.792Z,17.15
2018-07-08T17:26:08.535Z,17.17
2018-07-08T17:28:37.272Z,17.25
2018-07-08T17:31:06.067Z,17.26
2018-07-08T17:33:34.938Z,17.23
2018-07-08T17:36:04.035Z,17.23
2018-07-08T17:38:32.710Z,17.33
2018-07-08T17:41:01.580Z,17.40
2018-07-08T17:43:30.266Z,17.38
2018-07-08T17:45:59.019Z,17.40
2018-07-08T17:48:27.717Z,17.46
2018-07-08T17:50:57.386Z,17.47
2018-07-08T17:53:26.131Z,17.45
2018-07-08T17:55:54.870Z,17.43
2018-07-08T17:58:23.947Z,17.42
2018-07-08T18:00:52.634Z,17.44
2018-07-08T18:03:21.532Z,17.41
2018-07-08T18:05:50.536Z,17.36
2018-07-08T18:08:19.306Z,17.39
2018-07-08T18:10:47.970Z,17.33
2018-07-08T18:13:17.143Z,17.30
2018-07-08T18:15:46.787Z,17.31
2018-07-08T18:18:15.489Z,17.31
2018-07-08T18:20:44.253Z,17.31
2018-07-08T18:23:12.932Z,17.27
2018-07-08T18:25:41.650Z,17.26
2018-07-08T18:28:10.411Z,17.16
2018-07-08T18:30:39.198Z,17.13
2018-07-08T18:33:07.862Z,17.11
2018-07-08T18:35:36.628Z,17.12
2018-07-08T18:38:05.526Z,17.12
2018-07-08T18:40:34.272Z,17.06
2018-07-08T18:43:03.084Z,17.03
2018-07-08T18:45:31.757Z,17.06
2018-07-08T18:48:01.183Z,17.02
2018-07-08T18:50:30.243Z,17.01
2018-07-08T18:52:59.036Z,17.02
2018-07-08T18:55:28.142Z,17.00
2018-07-08T18:57:56.798Z,16.97
2018-07-08T19:00:25.695Z,16.92
2018-07-08T19:02:54.404Z,16.89
2018-07-08T19:05:23.955Z,16.82
2018-07-08T19:07:52.727Z,16.82
2018-07-08T19:10:22.002Z,16.81
2018-07-08T19:12:50.824Z,16.81
2018-07-08T19:15:19.570Z,16.82
2018-07-08T19:17:48.353Z,16.84
2018-07-08T19:20:17.051Z,16.79
2018-07-08T19:22:46.400Z,16.81
2018-07-08T19:25:15.071Z,16.79
2018-07-08T19:27:43.744Z,16.77
2018-07-08T19:30:12.587Z,16.77
2018-07-08T19:32:41.295Z,16.75
2018-07-08T19:35:09.982Z,17.15
2018-07-08T19:37:38.676Z,17.12
2018-07-08T19:40:07.389Z,17.22
2018-07-08T19:42:36.071Z,17.05
2018-07-08T19:45:04.947Z,16.95
2018-07-08T19:47:33.882Z,16.89
2018-07-08T19:50:02.901Z,16.88
2018-07-08T19:52:31.610Z,16.82
2018-07-08T19:55:00.384Z,16.87
2018-07-08T19:57:29.151Z,16.86
2018-07-08T19:59:57.939Z,16.88
2018-07-08T20:02:26.931Z,16.90
2018-07-08T20:04:55.676Z,16.88
2018-07-08T20:07:24.535Z,16.92
2018-07-08T20:09:53.303Z,16.94
2018-07-08T20:12:21.966Z,17.00
2018-07-08T20:14:50.662Z,17.05
2018-07-08T20:17:19.717Z,17.08
2018-07-08T20:19:48.581Z,17.08
2018-07-08T20:22:17.262Z,17.12
2018-07-08T20:24:45.962Z,17.10
2018-07-08T20:27:14.683Z,17.08
2018-07-08T20:29:43.405Z,17.12
2018-07-08T20:32:12.193Z,17.11
2018-07-08T20:34:40.854Z,17.09
2018-07-08T20:37:10.049Z,17.12
2018-07-08T20:39:38.762Z,17.10
2018-07-08T20:42:08.335Z,17.08
2018-07-08T20:44:37.275Z,17.02
2018-07-08T20:47:06.029Z,17.00
2018-07-08T20:49:35.123Z,17.00
2018-07-08T20:52:03.742Z,16.99
2018-07-08T20:54:33.163Z,16.99
2018-07-08T20:57:01.990Z,17.00
2018-07-08T20:59:30.747Z,16.99
2018-07-08T21:01:59.671Z,16.99
2018-07-08T21:04:28.404Z,16.97
2018-07-08T21:06:57.356Z,16.95
2018-07-08T21:09:26.019Z,16.91
2018-07-08T21:11:54.684Z,16.88
2018-07-08T21:14:23.442Z,16.91
2018-07-08T21:16:52.126Z,16.89
2018-07-08T21:19:20.992Z,16.90
2018-07-08T21:21:49.635Z,16.89
2018-07-08T21:24:18.291Z,16.88
2018-07-08T21:26:46.967Z,16.84
2018-07-08T21:29:15.719Z,16.87
2018-07-08T21:31:44.483Z,16.88
2018-07-08T21:34:13.183Z,16.89
2018-07-08T21:36:42.295Z,16.92
2018-07-08T21:39:11.716Z,16.96
2018-07-08T21:41:41.307Z,16.97
2018-07-08T21:44:10.101Z,16.98
2018-07-08T21:46:38.902Z,17.02
2018-07-08T21:49:08.333Z,17.00
2018-07-08T21:51:37.003Z,16.98
2018-07-08T21:54:05.795Z,16.95
2018-07-08T21:56:34.560Z,16.98
2018-07-08T21:59:03.251Z,17.02
2018-07-08T22:01:37.465Z,17.04
2018-07-08T22:04:06.251Z,17.04
2018-07-08T22:06:34.909Z,17.08
2018-07-08T22:09:03.927Z,17.10
2018-07-08T22:11:32.627Z,17.13
2018-07-08T22:14:01.389Z,17.17
2018-07-08T22:16:30.132Z,17.18
2018-07-08T22:18:58.872Z,17.10
2018-07-08T22:21:27.661Z,17.11
2018-07-08T22:23:56.508Z,17.16
2018-07-08T22:26:25.251Z,17.14
2018-07-08T22:28:53.936Z,17.15
2018-07-08T22:31:22.596Z,17.17
2018-07-08T22:33:51.311Z,17.14
2018-07-08T22:36:20.018Z,17.12
2018-07-08T22:38:48.697Z,17.06
2018-07-08T22:41:17.422Z,17.07
2018-07-08T22:43:46.189Z,17.09
2018-07-08T22:46:14.942Z,17.06
2018-07-08T22:48:44.447Z,17.08
2018-07-08T22:51:13.091Z,17.12
2018-07-08T22:53:41.934Z,17.17
2018-07-08T22:56:10.634Z,17.18
2018-07-08T22:58:39.344Z,17.11
2018-07-08T23:01:19.183Z,17.14
2018-07-08T23:03:50.675Z,17.11
2018-07-08T23:06:20.404Z,17.13
2018-07-08T23:08:49.818Z,17.20
2018-07-08T23:11:18.960Z,17.15
2018-07-08T23:13:48.748Z,17.15
2018-07-08T23:16:17.610Z,17.17
2018-07-08T23:18:46.298Z,17.17
2018-07-08T23:21:14.999Z,17.18
2018-07-08T23:23:43.670Z,17.16
2018-07-08T23:26:12.356Z,17.21
2018-07-08T23:28:41.036Z,17.19
2018-07-08T23:31:10.242Z,17.18
2018-07-08T23:33:38.987Z,17.13
2018-07-08T23:36:08.222Z,17.15
2018-07-08T23:38:37.011Z,17.18
2018-07-08T23:41:06.818Z,17.17
2018-07-08T23:43:35.500Z,17.15
2018-07-08T23:46:04.617Z,17.14
2018-07-08T23:48:33.740Z,17.17
2018-07-08T23:51:02.423Z,17.12
2018-07-08T23:53:31.219Z,17.14
2018-07-08T23:55:59.854Z,17.12
2018-07-08T23:58:28.530Z,17.09
